createdAt,value
2017-11-14T00:00:50.091Z,12.57
2017-11-14T00:03:17.282Z,19.60
2017-11-14T00:05:43.970Z,18.45
2017-11-14T00:08:11.596Z,14.93
2017-11-14T00:10:39.263Z,13.73
2017-11-14T00:13:05.520Z,17.02
2017-11-14T00:15:31.714Z,12.45
2017-11-14T00:17:58.956Z,9.32
2017-11-14T00:20:25.161Z,14.77
2017-11-14T00:22:53.339Z,9.05
2017-11-14T00:25:20.278Z,9.38
2017-11-14T00:27:47.936Z,9.68
2017-11-14T00:30:19.230Z,12.75
2017-11-14T00:32:46.030Z,10.73
2017-11-14T00:35:13.001Z,10.88
2017-11-14T00:37:39.751Z,11.12
2017-11-14T00:40:07.149Z,13.45
2017-11-14T00:42:34.582Z,12.63
2017-11-14T00:45:01.333Z,9.27
2017-11-14T00:47:28.342Z,17.42
2017-11-14T00:49:54.549Z,8.38
2017-11-14T00:52:21.048Z,12.20
2017-11-14T00:54:47.885Z,9.55
2017-11-14T00:57:14.674Z,10.15
2017-11-14T00:59:41.029Z,10.90
2017-11-14T01:02:07.295Z,10.55
2017-11-14T01:04:35.224Z,10.55
2017-11-14T01:07:02.380Z,12.32
2017-11-14T01:09:30.423Z,21.30
2017-11-14T01:11:57.694Z,12.45
2017-11-14T01:14:25.156Z,13.10
2017-11-14T01:16:52.551Z,11.85
2017-11-14T01:19:19.331Z,11.82
2017-11-14T01:21:46.102Z,12.77
2017-11-14T01:24:12.619Z,11.75
2017-11-14T01:26:38.927Z,10.15
2017-11-14T01:29:05.939Z,12.37
2017-11-14T01:31:32.333Z,7.80
2017-11-14T01:33:59.174Z,9.02
2017-11-14T01:36:26.652Z,13.45
2017-11-14T01:38:54.149Z,6.82
2017-11-14T01:41:21.820Z,12.93
2017-11-14T01:43:48.154Z,12.20
2017-11-14T01:46:14.598Z,12.77
2017-11-14T01:48:42.817Z,8.50
2017-11-14T01:51:10.206Z,9.98
2017-11-14T01:53:37.226Z,13.05
2017-11-14T01:56:03.880Z,12.00
2017-11-14T01:58:31.167Z,10.73
2017-11-14T02:00:58.894Z,11.48
2017-11-14T02:03:25.871Z,10.55
2017-11-14T02:05:53.015Z,9.38
2017-11-14T02:08:20.265Z,11.18
2017-11-14T02:10:46.532Z,11.77
2017-11-14T02:13:13.323Z,9.15
2017-11-14T02:15:40.915Z,9.90
2017-11-14T02:18:07.508Z,10.43
2017-11-14T02:20:35.101Z,10.50
2017-11-14T02:23:02.516Z,12.23
2017-11-14T02:25:29.015Z,11.40
2017-11-14T02:27:56.325Z,15.52
2017-11-14T02:30:23.922Z,8.73
2017-11-14T02:32:50.524Z,9.77
2017-11-14T02:35:17.428Z,10.75
2017-11-14T02:37:43.678Z,12.37
2017-11-14T02:40:10.833Z,9.23
2017-11-14T02:42:37.105Z,7.87
2017-11-14T02:45:03.873Z,10.13
2017-11-14T02:47:31.221Z,13.43
2017-11-14T02:49:57.624Z,10.43
2017-11-14T02:52:24.858Z,7.32
2017-11-14T02:54:51.123Z,11.60
2017-11-14T02:57:17.427Z,13.32
2017-11-14T02:59:44.266Z,8.98
2017-11-14T03:02:10.522Z,10.27
2017-11-14T03:04:36.729Z,11.57
2017-11-14T03:07:02.946Z,14.93
2017-11-14T03:09:29.210Z,13.35
2017-11-14T03:11:55.977Z,11.32
2017-11-14T03:14:24.250Z,16.58
2017-11-14T03:16:51.343Z,15.50
2017-11-14T03:19:17.814Z,14.93
2017-11-14T03:21:44.106Z,12.65
2017-11-14T03:24:10.370Z,14.82
2017-11-14T03:26:36.660Z,11.38
2017-11-14T03:29:03.547Z,13.75
2017-11-14T03:31:29.865Z,13.52
2017-11-14T03:33:56.186Z,14.60
2017-11-14T03:36:22.916Z,14.32
2017-11-14T03:55:00.056Z,12.85
2017-11-14T03:57:26.866Z,13.48
2017-11-14T03:59:53.461Z,12.55
2017-11-14T04:02:19.813Z,12.95
2017-11-14T04:04:46.316Z,11.75
2017-11-14T04:07:13.459Z,8.68
2017-11-14T04:09:40.284Z,10.65
2017-11-14T04:12:07.233Z,9.50
2017-11-14T04:14:34.467Z,8.75
2017-11-14T04:17:01.924Z,11.93
2017-11-14T04:19:28.675Z,8.93
2017-11-14T04:21:56.204Z,9.70
2017-11-14T04:24:22.665Z,9.27
2017-11-14T04:42:54.811Z,21.58
2017-11-14T04:45:21.826Z,32.38
2017-11-14T04:47:48.634Z,98.15
2017-11-14T04:50:16.121Z,66.87
2017-11-14T04:52:44.155Z,49.72
2017-11-14T04:55:11.156Z,29.12
2017-11-14T04:57:38.425Z,26.90
2017-11-14T05:00:04.666Z,53.05
2017-11-14T05:02:30.897Z,15.23
2017-11-14T05:04:57.650Z,25.88
2017-11-14T05:07:24.872Z,21.37
2017-11-14T05:09:51.557Z,26.90
2017-11-14T05:12:18.516Z,27.35
2017-11-14T05:14:45.244Z,48.85
2017-11-14T05:17:12.734Z,16.55
2017-11-14T05:19:39.508Z,31.25
2017-11-14T05:22:07.051Z,42.03
2017-11-14T05:24:33.240Z,25.55
2017-11-14T05:26:59.465Z,31.77
2017-11-14T05:29:25.900Z,42.03
2017-11-14T05:31:53.232Z,38.75
2017-11-14T05:34:20.880Z,22.35
2017-11-14T05:36:47.081Z,22.20
2017-11-14T05:39:13.345Z,24.60
2017-11-14T05:41:40.457Z,22.23
2017-11-14T05:44:07.998Z,16.27
2017-11-14T05:46:34.935Z,17.77
2017-11-14T05:49:02.553Z,17.08
2017-11-14T05:51:30.609Z,22.42
2017-11-14T05:53:58.221Z,16.42
2017-11-14T05:56:25.621Z,25.08
2017-11-14T05:58:52.205Z,19.73
2017-11-14T06:01:18.542Z,19.75
2017-11-14T06:03:44.977Z,18.05
2017-11-14T06:06:12.620Z,18.70
2017-11-14T06:08:39.372Z,19.65
2017-11-14T06:11:06.909Z,28.95
2017-11-14T06:23:18.357Z,18.98
2017-11-14T06:25:45.356Z,22.60
2017-11-14T06:28:12.073Z,23.17
2017-11-14T06:30:38.288Z,20.40
2017-11-14T06:33:05.508Z,24.30
2017-11-14T06:35:32.249Z,23.92
2017-11-14T06:38:00.194Z,26.35
2017-11-14T06:40:26.959Z,23.12
2017-11-14T06:42:54.553Z,26.40
2017-11-14T06:45:21.633Z,30.80
2017-11-14T06:47:49.029Z,28.70
2017-11-14T06:50:16.656Z,25.37
2017-11-14T06:52:43.158Z,18.48
2017-11-14T06:55:10.210Z,27.80
2017-11-14T06:57:37.033Z,26.10
2017-11-14T07:00:03.872Z,26.02
2017-11-14T07:02:30.104Z,23.75
2017-11-14T07:04:57.378Z,24.63
2017-11-14T07:07:24.344Z,25.02
2017-11-14T07:09:50.723Z,28.77
2017-11-14T07:12:17.988Z,23.23
2017-11-14T07:14:45.046Z,26.95
2017-11-14T07:17:11.896Z,21.20
2017-11-14T07:19:38.326Z,23.92
2017-11-14T07:22:06.120Z,20.08
2017-11-14T07:24:33.267Z,15.63
2017-11-14T07:27:00.302Z,21.08
2017-11-14T07:29:26.910Z,17.87
2017-11-14T07:31:53.188Z,22.05
2017-11-14T07:34:20.332Z,16.65
2017-11-14T07:36:46.540Z,16.20
2017-11-14T07:39:13.529Z,20.40
2017-11-14T07:41:40.510Z,17.50
2017-11-14T07:44:06.741Z,19.62
2017-11-14T07:46:34.161Z,24.08
2017-11-14T07:49:01.711Z,19.95
2017-11-14T07:51:28.903Z,14.70
2017-11-14T07:53:56.544Z,14.75
2017-11-14T07:56:23.394Z,23.08
2017-11-14T07:58:51.159Z,20.42
2017-11-14T08:01:18.049Z,19.75
2017-11-14T08:03:45.982Z,19.58
2017-11-14T08:06:12.771Z,26.50
2017-11-14T08:08:39.761Z,22.45
2017-11-14T08:11:06.066Z,22.05
2017-11-14T08:13:33.778Z,27.83
2017-11-14T08:16:01.940Z,26.27
2017-11-14T08:18:28.425Z,21.10
2017-11-14T08:20:55.905Z,28.90
2017-11-14T08:23:22.139Z,33.15
2017-11-14T08:25:49.007Z,28.20
2017-11-14T08:28:15.329Z,31.48
2017-11-14T08:30:42.132Z,24.55
2017-11-14T08:33:09.215Z,24.42
2017-11-14T08:35:35.419Z,29.70
2017-11-14T08:38:01.913Z,32.35
2017-11-14T08:40:28.992Z,25.02
2017-11-14T08:42:56.108Z,29.83
2017-11-14T08:45:23.347Z,30.45
2017-11-14T08:47:50.139Z,30.90
2017-11-14T08:50:18.594Z,31.35
2017-11-14T08:52:45.539Z,22.65
2017-11-14T08:55:11.869Z,22.27
2017-11-14T08:57:38.107Z,28.65
2017-11-14T09:00:06.071Z,27.30
2017-11-14T09:02:32.748Z,29.17
2017-11-14T09:05:00.155Z,25.30
2017-11-14T09:07:26.437Z,26.25
2017-11-14T09:09:52.663Z,26.55
2017-11-14T09:12:19.235Z,25.70
2017-11-14T09:14:45.616Z,28.33
2017-11-14T09:17:12.214Z,27.83
2017-11-14T09:19:39.232Z,23.80
2017-11-14T09:22:05.548Z,26.00
2017-11-14T09:24:32.763Z,25.00
2017-11-14T09:27:00.306Z,23.65
2017-11-14T09:29:26.696Z,25.95
2017-11-14T09:31:53.639Z,24.95
2017-11-14T09:34:20.850Z,27.67
2017-11-14T09:36:48.549Z,21.20
2017-11-14T09:39:15.583Z,13.00
2017-11-14T09:41:42.411Z,24.70
2017-11-14T09:44:09.520Z,27.65
2017-11-14T09:46:36.004Z,22.20
2017-11-14T09:49:03.222Z,29.52
2017-11-14T09:51:30.873Z,25.55
2017-11-14T09:53:57.717Z,19.80
2017-11-14T09:56:23.990Z,26.87
2017-11-14T09:58:50.583Z,25.45
2017-11-14T10:01:18.228Z,24.05
2017-11-14T10:03:45.025Z,25.60
2017-11-14T10:06:12.761Z,25.90
2017-11-14T10:08:39.740Z,18.02
2017-11-14T10:11:06.096Z,26.85
2017-11-14T10:13:33.062Z,21.58
2017-11-14T10:16:01.069Z,23.08
2017-11-14T10:18:28.307Z,25.70
2017-11-14T10:20:55.910Z,21.62
2017-11-14T10:23:23.304Z,23.15
2017-11-14T10:25:51.612Z,25.62
2017-11-14T10:28:18.355Z,25.27
2017-11-14T10:30:44.907Z,21.62
2017-11-14T10:33:14.662Z,19.73
2017-11-14T10:35:41.807Z,23.67
2017-11-14T10:38:08.833Z,21.62
2017-11-14T10:40:35.085Z,19.15
2017-11-14T10:43:02.861Z,19.50
2017-11-14T10:45:29.100Z,21.37
2017-11-14T10:47:56.112Z,15.68
2017-11-14T10:50:23.307Z,24.60
2017-11-14T10:52:50.852Z,24.45
2017-11-14T10:55:18.837Z,19.55
2017-11-14T10:57:45.097Z,24.35
2017-11-14T11:00:11.899Z,19.45
2017-11-14T11:02:38.909Z,17.17
2017-11-14T11:05:05.683Z,22.55
2017-11-14T11:07:32.964Z,21.23
2017-11-14T11:09:59.216Z,26.77
2017-11-14T11:12:26.709Z,22.92
2017-11-14T11:14:53.153Z,24.63
2017-11-14T11:17:20.241Z,24.17
2017-11-14T11:19:47.309Z,27.15
2017-11-14T11:22:14.526Z,25.83
2017-11-14T11:24:41.557Z,28.17
2017-11-14T11:27:08.127Z,27.55
2017-11-14T11:29:35.154Z,27.58
2017-11-14T11:32:01.456Z,24.77
2017-11-14T11:34:29.085Z,22.08
2017-11-14T11:36:55.376Z,25.00
2017-11-14T11:39:22.585Z,25.08
2017-11-14T11:41:49.074Z,19.95
2017-11-14T11:44:15.527Z,23.27
2017-11-14T11:46:43.194Z,23.83
2017-11-14T11:49:09.635Z,19.12
2017-11-14T11:51:36.672Z,18.85
2017-11-14T11:54:02.960Z,21.42
2017-11-14T11:56:29.812Z,18.65
2017-11-14T11:58:56.290Z,14.50
2017-11-14T12:01:23.466Z,18.95
2017-11-14T12:03:50.459Z,12.07
2017-11-14T12:06:17.282Z,18.75
2017-11-14T12:08:43.520Z,17.52
2017-11-14T12:11:10.294Z,16.98
2017-11-14T12:13:37.096Z,11.48
2017-11-14T12:16:04.457Z,10.77
2017-11-14T12:18:31.541Z,13.98
2017-11-14T12:20:59.187Z,15.70
2017-11-14T12:23:25.525Z,11.73
2017-11-14T12:25:52.317Z,11.68
2017-11-14T12:28:19.020Z,13.85
2017-11-14T12:30:46.003Z,18.12
2017-11-14T12:33:12.625Z,18.20
2017-11-14T12:35:40.134Z,16.65
2017-11-14T12:38:06.667Z,14.02
2017-11-14T12:40:34.634Z,18.80
2017-11-14T12:43:01.061Z,18.85
2017-11-14T12:45:27.487Z,14.32
2017-11-14T12:47:54.609Z,17.77
2017-11-14T12:50:21.090Z,17.85
2017-11-14T12:52:48.145Z,17.27
2017-11-14T12:55:14.547Z,14.27
2017-11-14T12:57:41.413Z,16.73
2017-11-14T13:00:07.887Z,14.05
2017-11-14T13:02:34.746Z,18.62
2017-11-14T13:05:01.979Z,16.33
2017-11-14T13:07:29.202Z,18.00
2017-11-14T13:09:55.536Z,16.87
2017-11-14T13:12:21.770Z,17.08
2017-11-14T13:14:49.935Z,16.70
2017-11-14T13:17:16.948Z,15.57
2017-11-14T13:19:43.551Z,18.17
2017-11-14T13:22:10.150Z,16.80
2017-11-14T13:24:37.650Z,18.02
2017-11-14T13:27:07.366Z,17.80
2017-11-14T13:29:33.592Z,19.55
2017-11-14T13:31:59.933Z,14.50
2017-11-14T13:34:26.769Z,18.05
2017-11-14T13:36:53.765Z,17.73
2017-11-14T13:39:20.970Z,19.40
2017-11-14T13:41:48.294Z,21.77
2017-11-14T13:44:14.541Z,20.67
2017-11-14T13:46:41.424Z,16.33
2017-11-14T13:49:08.503Z,18.12
2017-11-14T13:51:36.224Z,21.55
2017-11-14T13:54:03.006Z,18.33
2017-11-14T13:56:29.976Z,21.58
2017-11-14T13:58:57.090Z,20.33
2017-11-14T14:01:24.056Z,15.25
2017-11-14T14:03:51.425Z,20.92
2017-11-14T14:06:17.640Z,18.50
2017-11-14T14:08:45.208Z,17.40
2017-11-14T14:11:12.802Z,19.05
2017-11-14T14:13:39.795Z,19.10
2017-11-14T14:16:07.705Z,19.45
2017-11-14T14:18:34.734Z,15.20
2017-11-14T14:21:02.341Z,18.87
2017-11-14T14:23:29.083Z,17.55
2017-11-14T14:25:55.300Z,16.17
2017-11-14T14:28:22.192Z,18.20
2017-11-14T14:30:48.670Z,19.00
2017-11-14T14:33:15.894Z,14.05
2017-11-14T14:35:43.653Z,20.48
2017-11-14T14:38:10.057Z,20.17
2017-11-14T14:50:23.745Z,18.37
2017-11-14T14:52:49.952Z,18.52
2017-11-14T14:55:16.420Z,17.17
2017-11-14T14:57:43.970Z,17.48
2017-11-14T15:00:11.165Z,15.88
2017-11-14T15:02:38.062Z,17.83
2017-11-14T15:05:05.063Z,19.75
2017-11-14T15:07:32.223Z,19.00
2017-11-14T15:09:58.459Z,16.27
2017-11-14T15:12:25.193Z,16.20
2017-11-14T15:14:51.725Z,20.05
2017-11-14T15:17:18.714Z,18.70
2017-11-14T15:19:46.294Z,19.30
2017-11-14T15:22:12.815Z,16.65
2017-11-14T15:24:40.165Z,18.08
2017-11-14T15:27:07.961Z,17.67
2017-11-14T15:29:34.445Z,19.02
2017-11-14T15:32:01.897Z,21.23
2017-11-14T15:34:28.103Z,23.25
2017-11-14T15:36:54.868Z,19.48
2017-11-14T15:39:22.162Z,17.37
2017-11-14T15:41:48.555Z,17.02
2017-11-14T15:44:15.693Z,16.87
2017-11-14T15:46:41.889Z,19.83
2017-11-14T15:49:08.713Z,21.42
2017-11-14T15:51:36.358Z,17.08
2017-11-14T15:54:04.167Z,17.27
2017-11-14T15:56:31.570Z,16.10
2017-11-14T15:58:58.703Z,17.70
2017-11-14T16:01:25.635Z,14.32
2017-11-14T16:03:52.431Z,20.92
2017-11-14T16:06:19.344Z,21.98
2017-11-14T16:08:46.404Z,20.45
2017-11-14T16:11:13.353Z,20.25
2017-11-14T16:13:40.921Z,15.30
2017-11-14T16:16:08.454Z,20.90
2017-11-14T16:18:36.028Z,25.23
2017-11-14T16:21:02.285Z,21.70
2017-11-14T16:23:29.420Z,23.05
2017-11-14T16:25:57.597Z,16.30
2017-11-14T16:28:24.472Z,18.37
2017-11-14T16:30:50.787Z,20.25
2017-11-14T16:33:17.089Z,17.67
2017-11-14T16:35:43.328Z,18.77
2017-11-14T16:38:09.946Z,17.62
2017-11-14T16:40:37.598Z,24.40
2017-11-14T16:43:05.215Z,28.25
2017-11-14T16:45:31.855Z,18.92
2017-11-14T16:47:58.964Z,21.27
2017-11-14T16:50:25.672Z,20.40
2017-11-14T16:52:53.241Z,29.90
2017-11-14T16:55:20.608Z,20.90
2017-11-14T16:57:47.450Z,21.62
2017-11-14T17:00:15.259Z,26.58
2017-11-14T17:02:42.836Z,21.12
2017-11-14T17:05:10.057Z,31.02
2017-11-14T17:07:37.211Z,32.65
2017-11-14T17:19:50.584Z,27.80
2017-11-14T17:22:16.820Z,19.90
2017-11-14T17:24:43.449Z,26.33
2017-11-14T17:27:11.551Z,27.37
2017-11-14T17:29:37.765Z,24.73
2017-11-14T17:32:05.089Z,25.77
2017-11-14T17:34:31.483Z,25.25
2017-11-14T17:36:58.251Z,29.42
2017-11-14T17:39:24.667Z,26.77
2017-11-14T17:41:53.432Z,24.35
2017-11-14T17:44:20.949Z,22.08
2017-11-14T17:46:49.339Z,23.48
2017-11-14T17:49:15.702Z,25.00
2017-11-14T17:51:41.905Z,25.85
2017-11-14T17:54:09.445Z,25.10
2017-11-14T17:56:37.837Z,21.27
2017-11-14T17:59:06.001Z,24.33
2017-11-14T18:01:32.392Z,26.25
2017-11-14T18:13:43.727Z,32.33
2017-11-14T18:16:10.379Z,31.27
2017-11-14T18:18:39.158Z,32.90
2017-11-14T18:21:07.512Z,30.52
2017-11-14T18:23:34.507Z,26.75
2017-11-14T18:26:00.711Z,24.85
2017-11-14T18:28:27.767Z,33.42
2017-11-14T18:30:55.328Z,28.30
2017-11-14T18:33:23.346Z,30.75
2017-11-14T18:35:50.127Z,29.23
2017-11-14T18:38:18.069Z,29.85
2017-11-14T18:40:44.568Z,31.27
2017-11-14T18:43:12.008Z,35.97
2017-11-14T18:45:38.311Z,28.98
2017-11-14T18:48:05.292Z,30.27
2017-11-14T18:50:32.502Z,37.88
2017-11-14T18:53:00.852Z,33.78
2017-11-14T18:55:28.238Z,31.65
2017-11-14T18:57:55.786Z,43.63
2017-11-14T19:00:22.770Z,50.78
2017-11-14T19:02:49.080Z,31.67
2017-11-14T19:05:16.553Z,32.95
2017-11-14T19:07:43.604Z,29.75
2017-11-14T19:10:09.888Z,34.22
2017-11-14T19:12:37.082Z,29.30
2017-11-14T19:24:49.374Z,30.08
2017-11-14T19:27:15.610Z,33.35
2017-11-14T19:29:42.601Z,31.50
2017-11-14T19:32:10.213Z,29.35
2017-11-14T19:34:38.724Z,27.27
2017-11-14T19:37:07.324Z,32.30
2017-11-14T19:39:37.361Z,35.78
2017-11-14T19:42:05.863Z,35.70
2017-11-14T19:54:17.991Z,28.38
2017-11-14T19:56:45.584Z,27.33
2017-11-14T19:59:13.736Z,31.62
2017-11-14T20:01:40.300Z,32.95
2017-11-14T20:04:07.211Z,29.27
2017-11-14T20:06:33.501Z,25.75
2017-11-14T20:09:00.163Z,26.83
2017-11-14T20:11:27.786Z,27.65
2017-11-14T20:13:54.922Z,32.00
2017-11-14T20:16:21.138Z,26.85
2017-11-14T20:18:47.425Z,29.58
2017-11-14T20:21:14.761Z,28.15
2017-11-14T20:23:41.974Z,27.17
2017-11-14T20:26:10.045Z,22.95
2017-11-14T20:28:36.260Z,23.10
2017-11-14T20:31:02.477Z,29.67
2017-11-14T20:33:30.473Z,21.85
2017-11-14T20:35:58.031Z,24.77
2017-11-14T20:38:24.258Z,30.10
2017-11-14T20:40:50.568Z,29.52
2017-11-14T20:43:17.309Z,29.05
2017-11-14T20:45:43.527Z,35.10
2017-11-14T20:48:11.066Z,30.92
2017-11-14T20:50:37.651Z,26.42
2017-11-14T20:53:05.000Z,34.35
2017-11-14T20:55:31.866Z,28.42
2017-11-14T20:57:58.329Z,25.75
2017-11-14T21:00:26.504Z,30.52
2017-11-14T21:02:53.526Z,34.08
2017-11-14T21:05:19.834Z,25.80
2017-11-14T21:07:47.251Z,26.40
2017-11-14T21:10:14.215Z,29.00
2017-11-14T21:12:41.184Z,28.40
2017-11-14T21:15:07.493Z,32.30
2017-11-14T21:17:34.673Z,33.47
2017-11-14T21:20:02.738Z,30.88
2017-11-14T21:22:29.771Z,29.52
2017-11-14T21:24:56.184Z,29.55
2017-11-14T21:27:22.640Z,30.92
2017-11-14T21:29:49.516Z,29.92
2017-11-14T21:32:15.978Z,30.00
2017-11-14T21:34:44.418Z,28.27
2017-11-14T21:37:11.567Z,32.55
2017-11-14T21:39:38.451Z,30.05
2017-11-14T21:42:05.540Z,28.87
2017-11-14T21:44:32.145Z,29.67
2017-11-14T21:46:59.823Z,30.15
2017-11-14T21:49:26.041Z,29.75
2017-11-14T21:51:52.300Z,29.17
2017-11-14T21:54:19.148Z,29.48
2017-11-14T21:56:45.941Z,32.25
2017-11-14T21:59:13.257Z,31.95
2017-11-14T22:01:39.509Z,28.00
2017-11-14T22:04:06.496Z,27.62
2017-11-14T22:06:32.720Z,28.10
2017-11-14T22:08:59.163Z,27.77
2017-11-14T22:11:27.923Z,24.92
2017-11-14T22:13:54.869Z,25.10
2017-11-14T22:16:21.112Z,30.05
2017-11-14T22:18:47.852Z,28.10
2017-11-14T22:21:16.111Z,33.00
2017-11-14T22:23:42.828Z,28.35
2017-11-14T22:26:10.026Z,28.12
2017-11-14T22:28:36.810Z,28.67
2017-11-14T22:31:03.527Z,26.20
2017-11-14T22:33:30.728Z,26.15
2017-11-14T22:35:57.713Z,32.53
2017-11-14T22:38:24.932Z,29.12
2017-11-14T22:40:51.398Z,24.48
2017-11-14T22:43:18.022Z,27.20
2017-11-14T22:45:45.578Z,24.70
2017-11-14T22:48:11.848Z,31.27
2017-11-14T22:50:38.150Z,31.95
2017-11-14T22:53:05.178Z,24.05
2017-11-14T22:55:32.233Z,32.30
2017-11-14T22:58:00.518Z,29.58
2017-11-14T23:00:30.806Z,27.45
2017-11-14T23:02:57.824Z,24.48
2017-11-14T23:05:24.817Z,28.33
2017-11-14T23:07:53.328Z,25.83
2017-11-14T23:10:21.572Z,30.15
2017-11-14T23:12:47.781Z,34.72
2017-11-14T23:15:15.707Z,27.08
2017-11-14T23:17:41.925Z,29.12
2017-11-14T23:20:08.124Z,32.42
2017-11-14T23:22:34.345Z,29.27
2017-11-14T23:25:01.076Z,31.08
2017-11-14T23:27:28.120Z,30.17
2017-11-14T23:29:55.341Z,32.03
2017-11-14T23:32:21.554Z,27.10
2017-11-14T23:34:48.319Z,29.50
2017-11-14T23:37:15.319Z,30.08
2017-11-14T23:39:42.378Z,31.25
2017-11-14T23:42:09.170Z,33.47
2017-11-14T23:44:37.710Z,27.20
2017-11-14T23:47:03.966Z,25.33
2017-11-14T23:49:30.960Z,34.75
2017-11-14T23:51:57.226Z,31.95
2017-11-14T23:54:24.455Z,30.95
2017-11-14T23:56:51.198Z,24.98
2017-11-14T23:59:18.713Z,28.75
